| time (UTC) | temp C | wind direction | speed KPH | gust KPH | rain 1hr cm | rain 24hr cm | rain mn cm | humidity % | barometer mb |
| 20260508102715 | -17 | 45 | 3.2 | 9.7 | 0.00 | 0.00 | 0.00 | 1009.2 | |
| 20260508102437 | -17 | 19 | 3.2 | 9.7 | 0.00 | 0.00 | 0.00 | 1009.2 | |
| 20260508101656 | -17 | 5 | 1.6 | 6.4 | 0.00 | 0.00 | 0.00 | 1009.3 | |
| 20260508101145 | -17 | 52 | 1.6 | 6.4 | 0.00 | 0.00 | 0.00 | 1009.3 | |
| 20260508100635 | -17 | 352 | 3.2 | 6.4 | 0.00 | 0.00 | 0.00 | 1009.6 | |
| 20260508100125 | -17 | 10 | 1.6 | 6.4 | 0.00 | 0.00 | 0.00 | 1009.8 | |
| 20260508095618 | -17 | 311 | 0.0 | 4.8 | 0.00 | 0.00 | 0.00 | 1009.9 | |
| 20260508095107 | -17 | 323 | 1.6 | 4.8 | 0.00 | 0.00 | 0.00 | 1010.0 | |
| 20260508094600 | -17 | 316 | 1.6 | 4.8 | 0.00 | 0.00 | 0.00 | 1010.1 | |
| 20260508094049 | -17 | 316 | 0.0 | 3.2 | 0.00 | 0.00 | 0.00 | 1009.9 | |
| 20260508093540 | -17 | 307 | 0.0 | 1.6 | 0.00 | 0.00 | 0.00 | 1009.8 | |
| 20260508093300 | -17 | 10 | 0.0 | 0.0 | 0.00 | 0.00 | 0.00 | 1009.4 | |
| 20260508092521 | -17 | 42 | 0.0 | 0.0 | 0.00 | 0.00 | 0.00 | 1009.1 | |
| 20260508092011 | -17 | 42 | 0.0 | 0.0 | 0.00 | 0.00 | 0.00 | 1008.9 | |
| 20260508091505 | -17 | 42 | 0.0 | 0.0 | 0.00 | 0.00 | 0.00 | 1008.9 | |
| 20260508091228 | -17 | 42 | 0.0 | 0.0 | 0.00 | 0.00 | 0.00 | 1009.0 | |
| 20260508090457 | -17 | 24 | 0.0 | 0.0 | 0.00 | 0.00 | 0.00 | 1009.3 | |
| 20260508085953 | -17 | 24 | 0.0 | 0.0 | 0.00 | 0.00 | 0.00 | 1009.5 | |
| 20260508085441 | -17 | 24 | 0.0 | 0.0 | 0.00 | 0.00 | 0.00 | 1009.5 | |
| 20260508084935 | -17 | 24 | 0.0 | 1.6 | 0.00 | 0.00 | 0.00 | 1009.5 | |
| 20260508084430 | -17 | 24 | 0.0 | 1.6 | 0.00 | 0.00 | 0.00 | 1009.4 | |
| 20260508084159 | -17 | 15 | 0.0 | 1.6 | 0.00 | 0.00 | 0.00 | 1009.5 | |
| 20260508083653 | -17 | 5 | 0.0 | 1.6 | 0.00 | 0.00 | 0.00 | 1009.8 | |
| 20260508082919 | -17 | 5 | 0.0 | 1.6 | 0.00 | 0.00 | 0.00 | 1009.8 | |
| 20260508082413 | -17 | 15 | 0.0 | 3.2 | 0.00 | 0.00 | 0.00 | 1009.8 | |
| 20260508081909 | -17 | 346 | 1.6 | 6.4 | 0.00 | 0.00 | 0.00 | 1009.9 | |
| 20260508081402 | -17 | 348 | 1.6 | 6.4 | 0.00 | 0.00 | 0.00 | 1009.6 | |
| 20260508080900 | -17 | 338 | 3.2 | 6.4 | 0.00 | 0.00 | 0.00 | 1009.6 | |
| 20260508080354 | -17 | 358 | 3.2 | 8.0 | 0.00 | 0.00 | 0.00 | 1009.5 | |
| 20260508075851 | -17 | 10 | 3.2 | 8.0 | 0.00 | 0.00 | 0.00 | 1009.5 | |
| 20260508075350 | -17 | 15 | 4.8 | 9.7 | 0.00 | 0.00 | 0.00 | 1009.5 | |
| 20260508074850 | -17 | 10 | 4.8 | 9.7 | 0.00 | 0.00 | 0.00 | 1009.6 | |
| 20260508074334 | -17 | 350 | 4.8 | 9.7 | 0.00 | 0.00 | 0.00 | 1009.6 | |
| 20260508073825 | -17 | 352 | 4.8 | 8.0 | 0.00 | 0.00 | 0.00 | 1009.7 | |
| 20260508073555 | -17 | 351 | 4.8 | 9.7 | 0.00 | 0.00 | 0.00 | 1009.9 | |
| 20260508072826 | -17 | 10 | 4.8 | 9.7 | 0.00 | 0.00 | 0.00 | 1009.8 | |
| 20260508072320 | -17 | 10 | 4.8 | 14.5 | 0.00 | 0.00 | 0.00 | 1009.9 | |
| 20260508071818 | -17 | 10 | 3.2 | 14.5 | 0.00 | 0.00 | 0.00 | 1010.0 | |
| 20260508071312 | -17 | 343 | 4.8 | 14.5 | 0.00 | 0.00 | 0.00 | 1010.2 | |
| 20260508070806 | -17 | 10 | 4.8 | 14.5 | 0.00 | 0.00 | 0.00 | 1010.4 | |
| 20260508070300 | -17 | 328 | 1.6 | 6.4 | 0.00 | 0.00 | 0.00 | 1010.5 | |
| 20260508070028 | -17 | 331 | 1.6 | 6.4 | 0.00 | 0.00 | 0.00 | 1010.6 | |
| 20260508064742 | -17 | 334 | 0.0 | 4.8 | 0.00 | 0.00 | 0.00 | 1010.6 | |
| 20260508064504 | -17 | 327 | 0.0 | 4.8 | 0.00 | 0.00 | 0.00 | 1010.5 | |
| 20260508063221 | -17 | 308 | 0.0 | 1.6 | 0.00 | 0.00 | 0.00 | 1010.7 | |
| 20260508062714 | -17 | 295 | 0.0 | 1.6 | 0.00 | 0.00 | 0.00 | 1010.8 | |
| 20260508062435 | -17 | 300 | 0.0 | 1.6 | 0.00 | 0.00 | 0.00 | 1010.7 | |
| 20260508061658 | -17 | 327 | 0.0 | 1.6 | 0.00 | 0.00 | 0.00 | 1010.5 | |
| 20260508061150 | -17 | 1 | 0.0 | 1.6 | 0.00 | 0.00 | 0.00 | 1010.5 | |
| 20260508060640 | -17 | 5 | 0.0 | 1.6 | 0.00 | 0.00 | 0.00 | 1010.5 | |
| 20260508060136 | -17 | 25 | 0.0 | 1.6 | 0.00 | 0.00 | 0.00 | 1010.4 | |
| 20260508055633 | -17 | 75 | 0.0 | 1.6 | 0.00 | 0.00 | 0.00 | 1010.3 | |
| 20260508055124 | -17 | 75 | 0.0 | 1.6 | 0.00 | 0.00 | 0.00 | 1010.4 | |
| 20260508054103 | -17 | 61 | 1.6 | 12.9 | 0.00 | 0.00 | 0.00 | 1010.4 | |
| 20260508053553 | -17 | 87 | 4.8 | 12.9 | 0.00 | 0.00 | 0.00 | 1009.9 | |
| 20260508053042 | -17 | 61 | 8.0 | 16.1 | 0.00 | 0.00 | 0.00 | 1009.6 | |
| 20260508052532 | -17 | 90 | 8.0 | 16.1 | 0.00 | 0.00 | 0.00 | 1009.6 | |
| 20260508051512 | -17 | 112 | 8.0 | 17.7 | 0.00 | 0.00 | 0.00 | 1009.3 | |
| 20260508051002 | -17 | 96 | 8.0 | 16.1 | 0.00 | 0.00 | 0.00 | 1009.3 | |
| 20260508050452 | -17 | 96 | 11.3 | 17.7 | 0.00 | 0.00 | 0.00 | 1009.0 | |
| 20260508045942 | -17 | 90 | 11.3 | 17.7 | 0.00 | 0.00 | 0.00 | 1008.9 | |
| 20260508045432 | -17 | 102 | 14.5 | 19.3 | 0.00 | 0.00 | 0.00 | 1009.1 | |
| 20260508044921 | -17 | 108 | 14.5 | 19.3 | 0.00 | 0.00 | 0.00 | 1009.1 | |
| 20260508044416 | -17 | 112 | 9.7 | 19.3 | 0.00 | 0.00 | 0.00 | 1009.3 | |
| 20260508043906 | -17 | 101 | 8.0 | 14.5 | 0.00 | 0.00 | 0.00 | 1009.8 | |
| 20260508043357 | -17 | 102 | 11.3 | 16.1 | 0.00 | 0.00 | 0.00 | 1009.8 | |
| 20260508042846 | -17 | 100 | 11.3 | 16.1 | 0.00 | 0.00 | 0.00 | 1009.3 | |
| 20260508042335 | -17 | 126 | 8.0 | 16.1 | 0.00 | 0.00 | 0.00 | 1009.5 | |
| 20260508041825 | -17 | 10 | 8.0 | 16.1 | 0.00 | 0.00 | 0.00 | 1010.0 | |
| 20260508041315 | -17 | 10 | 11.3 | 16.1 | 0.00 | 0.00 | 0.00 | 1009.8 | |
| 20260508040811 | -17 | 10 | 11.3 | 16.1 | 0.00 | 0.00 | 0.00 | 1009.6 | |
| 20260508040532 | -17 | 115 | 6.4 | 14.5 | 0.00 | 0.00 | 0.00 | 1009.6 | |
| 20260508035752 | -17 | 117 | 1.6 | 6.4 | 0.00 | 0.00 | 0.00 | 1009.8 | |
| 20260508035247 | -17 | 132 | 1.6 | 4.8 | 0.00 | 0.00 | 0.00 | 1010.3 | |
| 20260508034743 | -17 | 110 | 0.0 | 4.8 | 0.00 | 0.00 | 0.00 | 1010.4 | |
| 20260508034233 | -17 | 69 | 0.0 | 0.0 | 0.00 | 0.00 | 0.00 | 1010.8 | |
| 20260508033724 | -17 | 69 | 0.0 | 1.6 | 0.00 | 0.00 | 0.00 | 1010.6 | |
| 20260508033443 | -17 | 69 | 0.0 | 1.6 | 0.00 | 0.00 | 0.00 | 1010.9 | |
| 20260508032703 | -17 | 314 | 0.0 | 0.0 | 0.00 | 0.00 | 0.00 | 1010.9 | |
| 20260508032153 | -17 | 315 | 0.0 | 1.6 | 0.00 | 0.00 | 0.00 | 1011.2 | |
| 20260508031643 | -17 | 322 | 0.0 | 1.6 | 0.00 | 0.00 | 0.00 | 1011.2 | |
| 20260508031133 | -17 | 319 | 0.0 | 0.0 | 0.00 | 0.00 | 0.00 | 1011.0 | |
| 20260508030629 | -17 | 117 | 0.0 | 1.6 | 0.00 | 0.00 | 0.00 | 1010.9 | |
| 20260508030117 | -17 | 117 | 0.0 | 1.6 | 0.00 | 0.00 | 0.00 | 1010.6 | |
| 20260508025608 | -17 | 121 | 0.0 | 0.0 | 0.00 | 0.00 | 0.00 | 1010.5 | |
| 20260508025057 | -17 | 121 | 0.0 | 0.0 | 0.00 | 0.00 | 0.00 | 1010.8 | |
| 20260508024547 | -17 | 121 | 0.0 | 0.0 | 0.00 | 0.00 | 0.00 | 1010.9 | |
| 20260508024037 | -17 | 121 | 0.0 | 0.0 | 0.00 | 0.00 | 0.00 | 1011.1 | |
| 20260508023527 | -17 | 121 | 0.0 | 0.0 | 0.00 | 0.00 | 0.00 | 1011.4 | |
| 20260508023017 | -17 | 121 | 0.0 | 3.2 | 0.00 | 0.00 | 0.00 | 1011.4 | |
| 20260508022507 | -17 | 75 | 0.0 | 4.8 | 0.00 | 0.00 | 0.00 | 1010.8 | |
| 20260508022000 | -17 | 77 | 0.0 | 4.8 | 0.00 | 0.00 | 0.00 | 1010.5 | |
| 20260508021459 | -17 | 113 | 0.0 | 1.6 | 0.00 | 0.00 | 0.00 | 1010.6 | |
| 20260508021218 | -17 | 125 | 0.0 | 6.4 | 0.00 | 0.00 | 0.00 | 1010.6 | |
| 20260508020437 | -17 | 121 | 1.6 | 6.4 | 0.00 | 0.00 | 0.00 | 1010.6 | |
| 20260508020200 | -17 | 93 | 1.6 | 6.4 | 0.00 | 0.00 | 0.00 | 1010.4 | |
| 20260508015418 | -17 | 77 | 4.8 | 6.4 | 0.00 | 0.00 | 0.00 | 1010.2 | |
| 20260508014908 | -17 | 67 | 3.2 | 6.4 | 0.00 | 0.00 | 0.00 | 1009.9 | |
| 20260508014407 | -17 | 74 | 1.6 | 4.8 | 0.00 | 0.00 | 0.00 | 1010.2 | |
| 20260508013905 | -17 | 77 | 1.6 | 6.4 | 0.00 | 0.00 | 0.00 | 1010.4 | |
| 20260508013402 | -17 | 79 | 1.6 | 6.4 | 0.00 | 0.00 | 0.00 | 1010.4 | |
| 20260508013132 | -17 | 79 | 1.6 | 4.8 | 0.00 | 0.00 | 0.00 | 1010.2 | |
| 20260508012401 | -17 | 78 | 0.0 | 4.8 | 0.00 | 0.00 | 0.00 | 1010.2 | |
| 20260508011851 | -17 | 65 | 0.0 | 1.6 | 0.00 | 0.00 | 0.00 | 1010.4 | |
| 20260508011342 | -17 | 49 | 0.0 | 1.6 | 0.00 | 0.00 | 0.00 | 1010.3 | |
| 20260508010831 | -17 | 59 | 0.0 | 3.2 | 0.00 | 0.00 | 0.00 | 1010.3 | |
| 20260508010321 | -17 | 69 | 1.6 | 6.4 | 0.00 | 0.00 | 0.00 | 1010.1 | |
| 20260508005812 | -17 | 75 | 1.6 | 6.4 | 0.00 | 0.00 | 0.00 | 1009.9 | |
| 20260508005305 | -17 | 71 | 1.6 | 6.4 | 0.00 | 0.00 | 0.00 | 1009.9 | |
| 20260508004752 | -17 | 55 | 1.6 | 3.2 | 0.00 | 0.00 | 0.00 | 1010.1 | |
| 20260508003221 | -17 | 25 | 0.0 | 3.2 | 0.00 | 0.00 | 0.00 | 1010.2 | |
| 20260508002709 | -17 | 28 | 0.0 | 3.2 | 0.00 | 0.00 | 0.00 | 1010.2 | |
| 20260508002159 | -17 | 10 | 0.0 | 3.2 | 0.00 | 0.00 | 0.00 | 1010.2 | |
| 20260508001648 | -17 | 26 | 0.0 | 3.2 | 0.00 | 0.00 | 0.00 | 1010.1 | |
| 20260508001137 | -17 | 22 | 1.6 | 6.4 | 0.00 | 0.00 | 0.00 | 1010.1 | |
| 20260508000117 | -17 | 59 | 1.6 | 6.4 | 0.00 | 0.00 | 0.00 | 1009.9 | |
| 20260507235609 | -17 | 50 | 1.6 | 6.4 | 0.00 | 0.00 | 0.00 | 1010.0 | |
| 20260507235059 | -17 | 56 | 1.6 | 4.8 | 0.00 | 0.00 | 0.00 | 1009.9 | |
| 20260507234549 | -17 | 75 | 1.6 | 6.4 | 0.00 | 0.00 | 0.00 | 1009.9 | |
| 20260507234039 | -17 | 35 | 1.6 | 6.4 | 0.00 | 0.00 | 0.00 | 1009.9 | |
| 20260507233529 | -17 | 61 | 0.0 | 4.8 | 0.00 | 0.00 | 0.00 | 1010.0 | |
| 20260507233013 | -17 | 48 | 1.6 | 4.8 | 0.00 | 0.00 | 0.00 | 1010.2 | |
| 20260507232503 | -17 | 46 | 1.6 | 4.8 | 0.00 | 0.00 | 0.00 | 1010.3 | |
| 20260507231955 | -17 | 52 | 1.6 | 4.8 | 0.00 | 0.00 | 0.00 | 1010.2 | |
| 20260507231445 | -17 | 41 | 1.6 | 6.4 | 0.00 | 0.00 | 0.00 | 1010.2 | |
| 20260507230935 | -17 | 38 | 1.6 | 6.4 | 0.00 | 0.00 | 0.00 | 1010.3 | |
| 20260507230431 | -17 | 38 | 3.2 | 6.4 | 0.00 | 0.00 | 0.00 | 1010.1 | |
| 20260507225921 | -17 | 49 | 4.8 | 8.0 | 0.00 | 0.00 | 0.00 | 1010.0 | |
| 20260507225642 | -17 | 56 | 4.8 | 8.0 | 0.00 | 0.00 | 0.00 | 1010.0 | |
| 20260507225136 | -17 | 53 | 3.2 | 8.0 | 0.00 | 0.00 | 0.00 | 1010.1 | |
| 20260507224357 | -17 | 45 | 4.8 | 8.0 | 0.00 | 0.00 | 0.00 | 1010.1 | |
| 20260507223849 | -17 | 52 | 4.8 | 11.3 | 0.00 | 0.00 | 0.00 | 1010.1 | |
| 20260507223334 | -17 | 48 | 6.4 | 12.9 | 0.00 | 0.00 | 0.00 | 1010.1 | |
| 20260507222819 | -17 | 61 | 6.4 | 12.9 | 0.00 | 0.00 | 0.00 | 1010.0 | |
| 20260507222318 | -17 | 29 | 6.4 | 12.9 | 0.00 | 0.00 | 0.00 | 1009.9 | |
| 20260507221815 | -17 | 47 | 6.4 | 12.9 | 0.00 | 0.00 | 0.00 | 1010.0 | |
| 20260507221309 | -17 | 45 | 6.4 | 14.5 | 0.00 | 0.00 | 0.00 | 1010.0 | |
| 20260507220810 | -17 | 52 | 6.4 | 16.1 | 0.00 | 0.00 | 0.00 | 1009.9 | |
| 20260507220532 | -17 | 10 | 6.4 | 12.9 | 0.00 | 0.00 | 0.00 | 1009.9 | |
| 20260507215801 | -17 | 51 | 8.0 | 12.9 | 0.00 | 0.00 | 0.00 | 1010.0 | |
| 20260507215258 | -17 | 53 | 6.4 | 12.9 | 0.00 | 0.00 | 0.00 | 1010.1 | |
| 20260507214749 | -17 | 76 | 6.4 | 14.5 | 0.00 | 0.00 | 0.00 | 1010.1 | |
| 20260507214516 | -17 | 10 | 6.4 | 16.1 | 0.00 | 0.00 | 0.00 | 1010.1 | |
| 20260507213737 | -17 | 10 | 6.4 | 16.1 | 0.00 | 0.00 | 0.00 | 1010.1 | |
| 20260507213505 | -17 | 10 | 8.0 | 17.7 | 0.00 | 0.00 | 0.00 | 1010.2 | |
| 20260507212728 | -17 | 42 | 8.0 | 17.7 | 0.00 | 0.00 | 0.00 | 1010.3 | |
| 20260507212223 | -17 | 53 | 8.0 | 14.5 | 0.00 | 0.00 | 0.00 | 1010.3 | |
| 20260507211719 | -17 | 30 | 9.7 | 16.1 | 0.00 | 0.00 | 0.00 | 1010.4 | |
| 20260507211446 | -17 | 60 | 11.3 | 17.7 | 0.00 | 0.00 | 0.00 | 1010.4 | |
| 20260507210708 | -17 | 10 | 12.9 | 17.7 | 0.00 | 0.00 | 0.00 | 1010.4 | |
| 20260507210203 | -17 | 10 | 12.9 | 17.7 | 0.00 | 0.00 | 0.00 | 1010.4 | |
| 20260507205657 | -17 | 10 | 11.3 | 17.7 | 0.00 | 0.00 | 0.00 | 1010.5 | |
| 20260507205152 | -17 | 10 | 12.9 | 17.7 | 0.00 | 0.00 | 0.00 | 1010.5 | |
| 20260507204644 | -17 | 61 | 11.3 | 17.7 | 0.00 | 0.00 | 0.00 | 1010.6 | |
| 20260507204139 | -17 | 55 | 11.3 | 17.7 | 0.00 | 0.00 | 0.00 | 1010.7 | |
| 20260507203632 | -17 | 50 | 11.3 | 17.7 | 0.00 | 0.00 | 0.00 | 1010.8 | |
| 20260507203124 | -17 | 61 | 9.7 | 16.1 | 0.00 | 0.00 | 0.00 | 1011.0 | |
| 20260507202621 | -17 | 54 | 11.3 | 17.7 | 0.00 | 0.00 | 0.00 | 1011.1 | |
| 20260507202113 | -17 | 10 | 11.3 | 17.7 | 0.00 | 0.00 | 0.00 | 1011.2 | |
| 20260507201607 | -17 | 10 | 8.0 | 16.1 | 0.00 | 0.00 | 0.00 | 1011.2 | |
| 20260507201101 | -17 | 40 | 8.0 | 14.5 | 0.00 | 0.00 | 0.00 | 1011.2 | |
| 20260507200552 | -17 | 60 | 8.0 | 14.5 | 0.00 | 0.00 | 0.00 | 1011.3 | |
| 20260507200044 | -17 | 10 | 9.7 | 16.1 | 0.00 | 0.00 | 0.00 | 1011.4 | |
| 20260507195533 | -17 | 10 | 8.0 | 19.3 | 0.00 | 0.00 | 0.00 | 1011.4 | |
| 20260507195024 | -17 | 10 | 8.0 | 19.3 | 0.00 | 0.00 | 0.00 | 1011.5 | |
| 20260507194514 | -17 | 10 | 8.0 | 16.1 | 0.00 | 0.00 | 0.00 | 1011.5 | |
| 20260507194004 | -17 | 37 | 9.7 | 16.1 | 0.00 | 0.00 | 0.00 | 1011.5 | |
| 20260507193454 | -17 | 10 | 8.0 | 17.7 | 0.00 | 0.00 | 0.00 | 1011.5 | |
| 20260507192945 | -17 | 21 | 9.7 | 17.7 | 0.00 | 0.00 | 0.00 | 1011.5 | |
| 20260507192435 | -17 | 10 | 9.7 | 17.7 | 0.00 | 0.00 | 0.00 | 1011.6 | |
| 20260507191925 | -17 | 10 | 11.3 | 17.7 | 0.00 | 0.00 | 0.00 | 1011.7 | |
| 20260507191415 | -17 | 21 | 11.3 | 17.7 | 0.00 | 0.00 | 0.00 | 1011.9 | |
| 20260507191136 | -17 | 23 | 11.3 | 17.7 | 0.00 | 0.00 | 0.00 | 1011.9 | |
| 20260507190354 | -17 | 19 | 9.7 | 17.7 | 0.00 | 0.00 | 0.00 | 1012.1 | |
| 20260507185844 | -17 | 10 | 11.3 | 17.7 | 0.00 | 0.00 | 0.00 | 1012.1 | |
| 20260507185337 | -17 | 34 | 9.7 | 17.7 | 0.00 | 0.00 | 0.00 | 1012.1 | |
| 20260507184824 | -17 | 10 | 9.7 | 16.1 | 0.00 | 0.00 | 0.00 | 1012.2 | |
| 20260507184315 | -17 | 10 | 8.0 | 16.1 | 0.00 | 0.00 | 0.00 | 1012.2 | |
| 20260507183804 | -17 | 19 | 8.0 | 17.7 | 0.00 | 0.00 | 0.00 | 1012.4 | |
| 20260507183254 | -17 | 10 | 8.0 | 17.7 | 0.00 | 0.00 | 0.00 | 1012.5 | |
| 20260507182744 | -17 | 48 | 8.0 | 17.7 | 0.00 | 0.00 | 0.00 | 1012.5 | |
| 20260507182234 | -17 | 20 | 9.7 | 19.3 | 0.00 | 0.00 | 0.00 | 1012.5 | |
| 20260507181723 | -17 | 10 | 9.7 | 19.3 | 0.00 | 0.00 | 0.00 | 1012.6 | |
| 20260507181212 | -17 | 10 | 9.7 | 19.3 | 0.00 | 0.00 | 0.00 | 1012.6 | |
| 20260507180700 | -17 | 10 | 11.3 | 20.9 | 0.00 | 0.00 | 0.00 | 1012.5 | |
| 20260507180423 | -17 | 32 | 14.5 | 20.9 | 0.00 | 0.00 | 0.00 | 1012.5 | |
| 20260507175641 | -17 | 10 | 12.9 | 19.3 | 0.00 | 0.00 | 0.00 | 1012.4 | |
| 20260507174625 | -17 | 26 | 12.9 | 22.5 | 0.00 | 0.00 | 0.00 | 1012.5 | |
| 20260507174115 | -17 | 10 | 11.3 | 22.5 | 0.00 | 0.00 | 0.00 | 1012.7 | |
| 20260507173605 | -17 | 37 | 11.3 | 22.5 | 0.00 | 0.00 | 0.00 | 1012.7 | |
| 20260507173326 | -17 | 10 | 12.9 | 22.5 | 0.00 | 0.00 | 0.00 | 1012.7 | |
| 20260507172544 | -17 | 10 | 12.9 | 20.9 | 0.00 | 0.00 | 0.00 | 1012.9 | |
| 20260507172308 | -17 | 10 | 12.9 | 20.9 | 0.00 | 0.00 | 0.00 | 1012.9 | |
| 20260507171524 | -17 | 10 | 14.5 | 22.5 | 0.00 | 0.00 | 0.00 | 1012.8 | |
| 20260507171015 | -17 | 10 | 14.5 | 24.1 | 0.00 | 0.00 | 0.00 | 1012.7 | |
| 20260507170735 | -17 | 348 | 14.5 | 24.1 | 0.00 | 0.00 | 0.00 | 1012.8 | |
| 20260507165955 | -17 | 15 | 16.1 | 22.5 | 0.00 | 0.00 | 0.00 | 1012.7 | |
| 20260507165444 | -17 | 42 | 14.5 | 24.1 | 0.00 | 0.00 | 0.00 | 1012.7 | |
| 20260507164934 | -17 | 23 | 12.9 | 22.5 | 0.00 | 0.00 | 0.00 | 1012.7 | |
| 20260507164424 | -17 | 10 | 12.9 | 22.5 | 0.00 | 0.00 | 0.00 | 1012.7 | |
| 20260507163914 | -17 | 10 | 12.9 | 20.9 | 0.00 | 0.00 | 0.00 | 1012.8 | |
| 20260507163404 | -17 | 10 | 12.9 | 20.9 | 0.00 | 0.00 | 0.00 | 1012.8 | |
| 20260507162854 | -17 | 10 | 11.3 | 20.9 | 0.00 | 0.00 | 0.00 | 1012.8 | |
| 20260507162344 | -17 | 10 | 11.3 | 20.9 | 0.00 | 0.00 | 0.00 | 1012.8 | |
| 20260507161834 | -17 | 20 | 9.7 | 19.3 | 0.00 | 0.00 | 0.00 | 1012.7 | |
| 20260507161324 | -17 | 48 | 9.7 | 20.9 | 0.00 | 0.00 | 0.00 | 1012.6 | |
| 20260507160815 | -17 | 10 | 11.3 | 20.9 | 0.00 | 0.00 | 0.00 | 1012.7 | |
| 20260507160536 | -17 | 10 | 9.7 | 20.9 | 0.00 | 0.00 | 0.00 | 1012.6 | |
| 20260507155754 | -17 | 5 | 9.7 | 16.1 | 0.00 | 0.00 | 0.00 | 1012.5 | |
| 20260507155514 | -17 | 10 | 9.7 | 17.7 | 0.00 | 0.00 | 0.00 | 1012.6 | |
| 20260507155001 | -17 | 10 | 11.3 | 20.9 | 0.00 | 0.00 | 0.00 | 1012.6 | |
| 20260507154452 | -17 | 10 | 11.3 | 20.9 | 0.00 | 0.00 | 0.00 | 1012.6 | |
| 20260507153710 | -17 | 10 | 11.3 | 20.9 | 0.00 | 0.00 | 0.00 | 1012.5 | |
| 20260507153200 | -17 | 352 | 11.3 | 20.9 | 0.00 | 0.00 | 0.00 | 1012.5 | |
| 20260507152650 | -17 | 10 | 12.9 | 24.1 | 0.00 | 0.00 | 0.00 | 1012.3 | |
| 20260507152140 | -17 | 5 | 14.5 | 24.1 | 0.00 | 0.00 | 0.00 | 1012.1 | |
| 20260507151631 | -17 | 41 | 14.5 | 24.1 | 0.00 | 0.00 | 0.00 | 1012.0 | |
| 20260507151120 | -17 | 50 | 12.9 | 22.5 | 0.00 | 0.00 | 0.00 | 1012.1 | |
| 20260507150610 | -17 | 5 | 12.9 | 22.5 | 0.00 | 0.00 | 0.00 | 1012.1 | |
| 20260507150101 | -17 | 10 | 12.9 | 20.9 | 0.00 | 0.00 | 0.00 | 1012.1 | |
| 20260507145546 | -17 | 25 | 14.5 | 24.1 | 0.00 | 0.00 | 0.00 | 1012.2 | |
| 20260507145307 | -17 | 19 | 14.5 | 24.1 | 0.00 | 0.00 | 0.00 | 1012.2 | |
| 20260507144526 | -17 | 51 | 12.9 | 24.1 | 0.00 | 0.00 | 0.00 | 1012.2 | |
| 20260507144247 | -17 | 10 | 12.9 | 24.1 | 0.00 | 0.00 | 0.00 | 1012.0 | |
| 20260507143458 | -17 | 34 | 14.5 | 24.1 | 0.00 | 0.00 | 0.00 | 1012.0 | |
| 20260507142941 | -17 | 10 | 12.9 | 24.1 | 0.00 | 0.00 | 0.00 | 1012.0 | |
| 20260507142423 | -17 | 15 | 14.5 | 25.7 | 0.00 | 0.00 | 0.00 | 1011.8 | |
| 20260507141912 | -17 | 30 | 14.5 | 25.7 | 0.00 | 0.00 | 0.00 | 1011.9 | |
| 20260507141403 | -17 | 10 | 12.9 | 22.5 | 0.00 | 0.00 | 0.00 | 1012.0 | |
| 20260507141123 | -17 | 32 | 14.5 | 24.1 | 0.00 | 0.00 | 0.00 | 1012.0 | |
| 20260507140343 | -17 | 10 | 16.1 | 24.1 | 0.00 | 0.00 | 0.00 | 1011.9 | |
| 20260507135844 | -17 | 38 | 14.5 | 24.1 | 0.00 | 0.00 | 0.00 | 1011.8 | |
| 20260507135335 | -17 | 1 | 14.5 | 24.1 | 0.00 | 0.00 | 0.00 | 1012.0 | |
| 20260507134825 | -17 | 10 | 14.5 | 24.1 | 0.00 | 0.00 | 0.00 | 1011.9 | |
| 20260507134315 | -17 | 10 | 14.5 | 24.1 | 0.00 | 0.00 | 0.00 | 1011.9 | |
| 20260507133804 | -17 | 10 | 16.1 | 24.1 | 0.00 | 0.00 | 0.00 | 1011.9 | |
| 20260507133526 | -17 | 10 | 14.5 | 24.1 | 0.00 | 0.00 | 0.00 | 1011.9 | |
| 20260507132744 | -17 | 10 | 12.9 | 24.1 | 0.00 | 0.00 | 0.00 | 1011.7 | |
| 20260507132506 | -17 | 0 | 12.9 | 22.5 | 0.00 | 0.00 | 0.00 | 1011.6 | |
| 20260507131724 | -17 | 10 | 12.9 | 22.5 | 0.00 | 0.00 | 0.00 | 1011.5 | |
| 20260507131214 | -17 | 42 | 14.5 | 24.1 | 0.00 | 0.00 | 0.00 | 1011.4 | |
| 20260507130705 | -17 | 5 | 14.5 | 24.1 | 0.00 | 0.00 | 0.00 | 1011.3 | |
| 20260507130154 | -17 | 10 | 11.3 | 19.3 | 0.00 | 0.00 | 0.00 | 1011.2 | |
| 20260507125631 | -17 | 21 | 9.7 | 16.1 | 0.00 | 0.00 | 0.00 | 1010.9 | |
| 20260507125123 | -17 | 50 | 11.3 | 19.3 | 0.00 | 0.00 | 0.00 | 1011.0 | |
| 20260507124609 | -17 | 5 | 11.3 | 20.9 | 0.00 | 0.00 | 0.00 | 1010.9 | |
| 20260507124100 | -17 | 10 | 9.7 | 19.3 | 0.00 | 0.00 | 0.00 | 1011.1 | |
| 20260507123552 | -17 | 38 | 9.7 | 19.3 | 0.00 | 0.00 | 0.00 | 1010.9 | |
| 20260507123046 | -17 | 10 | 12.9 | 20.9 | 0.00 | 0.00 | 0.00 | 1010.7 | |
| 20260507122539 | -17 | 359 | 11.3 | 20.9 | 0.00 | 0.00 | 0.00 | 1010.5 | |
| 20260507122035 | -17 | 15 | 11.3 | 20.9 | 0.00 | 0.00 | 0.00 | 1010.6 | |
| 20260507121524 | -17 | 51 | 12.9 | 20.9 | 0.00 | 0.00 | 0.00 | 1010.5 | |
| 20260507121250 | -17 | 5 | 11.3 | 17.7 | 0.00 | 0.00 | 0.00 | 1010.4 | |
| 20260507120517 | -17 | 50 | 11.3 | 19.3 | 0.00 | 0.00 | 0.00 | 1010.7 | |
| 20260507120015 | -17 | 15 | 9.7 | 19.3 | 0.00 | 0.00 | 0.00 | 1010.8 | |
| 20260507115511 | -17 | 10 | 8.0 | 16.1 | 0.00 | 0.00 | 0.00 | 1010.9 | |
| 20260507115233 | -17 | 15 | 8.0 | 16.1 | 0.00 | 0.00 | 0.00 | 1011.1 | |
| 20260507114456 | -17 | 10 | 9.7 | 16.1 | 0.00 | 0.00 | 0.00 | 1011.3 | |
| 20260507113953 | -17 | 10 | 11.3 | 16.1 | 0.00 | 0.00 | 0.00 | 1011.3 | |
| 20260507113448 | -17 | 5 | 11.3 | 16.1 | 0.00 | 0.00 | 0.00 | 1010.9 | |
| 20260507112943 | -17 | 19 | 9.7 | 17.7 | 0.00 | 0.00 | 0.00 | 1010.7 | |
| 20260507112436 | -17 | 10 | 8.0 | 17.7 | 0.00 | 0.00 | 0.00 | 1010.7 | |
| 20260507111927 | -17 | 10 | 8.0 | 16.1 | 0.00 | 0.00 | 0.00 | 1010.6 | |
| 20260507111657 | -17 | 5 | 6.4 | 16.1 | 0.00 | 0.00 | 0.00 | 1010.5 | |
| 20260507110922 | -17 | 10 | 6.4 | 16.1 | 0.00 | 0.00 | 0.00 | 1010.4 | |
| 20260507110419 | -17 | 10 | 8.0 | 16.1 | 0.00 | 0.00 | 0.00 | 1010.3 | |
| 20260507110144 | -17 | 5 | 8.0 | 16.1 | 0.00 | 0.00 | 0.00 | 1010.4 | |
| 20260507105410 | -17 | 10 | 8.0 | 17.7 | 0.00 | 0.00 | 0.00 | 1010.4 | |
| 20260507104918 | -17 | 352 | 9.7 | 17.7 | 0.00 | 0.00 | 0.00 | 1010.3 | |
| 20260507104349 | -17 | 39 | 9.7 | 19.3 | 0.00 | 0.00 | 0.00 | 1010.2 | |
| 20260507103844 | -17 | 10 | 11.3 | 19.3 | 0.00 | 0.00 | 0.00 | 1010.1 | |
| 20260507103341 | -17 | 5 | 11.3 | 17.7 | 0.00 | 0.00 | 0.00 | 1010.0 |